sensor_id;sensor_type;location;lat;lon;timestamp;pressure;altitude;pressure_sealevel;temperature;humidity
73516;BME280;61763;51.416;5.442;2024-01-30T00:01:59;102577.03;;;4.30;100.00
73516;BME280;61763;51.416;5.442;2024-01-30T00:04:24;102570.81;;;4.29;100.00
73516;BME280;61763;51.416;5.442;2024-01-30T00:06:51;102572.59;;;4.27;100.00
73516;BME280;61763;51.416;5.442;2024-01-30T00:09:17;102575.25;;;4.23;100.00
73516;BME280;61763;51.416;5.442;2024-01-30T00:11:43;102573.44;;;4.15;100.00
73516;BME280;61763;51.416;5.442;2024-01-30T00:14:08;102567.16;;;4.12;100.00
73516;BME280;61763;51.416;5.442;2024-01-30T00:16:34;102567.16;;;4.12;100.00
73516;BME280;61763;51.416;5.442;2024-01-30T00:18:59;102577.84;;;4.10;100.00
73516;BME280;61763;51.416;5.442;2024-01-30T00:21:26;102569.84;;;4.15;100.00
73516;BME280;61763;51.416;5.442;2024-01-30T00:23:51;102560.97;;;4.16;100.00
73516;BME280;61763;51.416;5.442;2024-01-30T00:26:16;102560.94;;;4.11;100.00
73516;BME280;61763;51.416;5.442;2024-01-30T00:28:42;102566.28;;;4.11;100.00
73516;BME280;61763;51.416;5.442;2024-01-30T00:31:08;102560.94;;;4.08;100.00
73516;BME280;61763;51.416;5.442;2024-01-30T00:33:40;102558.25;;;4.07;100.00
73516;BME280;61763;51.416;5.442;2024-01-30T00:36:06;102557.34;;;4.06;100.00
73516;BME280;61763;51.416;5.442;2024-01-30T00:38:32;102559.16;;;4.07;100.00
73516;BME280;61763;51.416;5.442;2024-01-30T00:40:58;102561.81;;;4.06;100.00
73516;BME280;61763;51.416;5.442;2024-01-30T00:43:23;102560.94;;;4.05;100.00
73516;BME280;61763;51.416;5.442;2024-01-30T00:45:50;102555.59;;;4.08;100.00
73516;BME280;61763;51.416;5.442;2024-01-30T00:48:17;102554.69;;;4.11;100.00
73516;BME280;61763;51.416;5.442;2024-01-30T00:50:42;102553.81;;;4.15;100.00
73516;BME280;61763;51.416;5.442;2024-01-30T00:53:08;102552.94;;;4.17;100.00
73516;BME280;61763;51.416;5.442;2024-01-30T00:55:33;102541.34;;;4.11;100.00
73516;BME280;61763;51.416;5.442;2024-01-30T00:57:58;102554.75;;;4.15;100.00
73516;BME280;61763;51.416;5.442;2024-01-30T01:00:24;102546.72;;;4.15;100.00
73516;BME280;61763;51.416;5.442;2024-01-30T01:02:54;102545.81;;;4.15;100.00
73516;BME280;61763;51.416;5.442;2024-01-30T01:05:20;102539.63;;;4.30;100.00
73516;BME280;61763;51.416;5.442;2024-01-30T01:07:45;102543.19;;;4.24;100.00
73516;BME280;61763;51.416;5.442;2024-01-30T01:10:12;102537.84;;;4.26;100.00
73516;BME280;61763;51.416;5.442;2024-01-30T01:12:39;102530.69;;;4.23;100.00
73516;BME280;61763;51.416;5.442;2024-01-30T01:15:05;102541.38;;;4.23;100.00
73516;BME280;61763;51.416;5.442;2024-01-30T01:17:30;102535.16;;;4.24;100.00
73516;BME280;61763;51.416;5.442;2024-01-30T01:19:57;102538.72;;;4.25;100.00
73516;BME280;61763;51.416;5.442;2024-01-30T01:22:22;102541.41;;;4.26;100.00
73516;BME280;61763;51.416;5.442;2024-01-30T01:24:48;102533.41;;;4.32;100.00
73516;BME280;61763;51.416;5.442;2024-01-30T01:27:13;102534.31;;;4.39;100.00
73516;BME280;61763;51.416;5.442;2024-01-30T01:29:38;102528.97;;;4.48;100.00
73516;BME280;61763;51.416;5.442;2024-01-30T01:32:04;102530.78;;;4.59;100.00
73516;BME280;61763;51.416;5.442;2024-01-30T01:34:29;102531.69;;;4.68;100.00
73516;BME280;61763;51.416;5.442;2024-01-30T01:36:55;102526.34;;;4.73;100.00
73516;BME280;61763;51.416;5.442;2024-01-30T01:39:22;102529.91;;;4.78;100.00
73516;BME280;61763;51.416;5.442;2024-01-30T01:41:48;102526.34;;;4.85;100.00
73516;BME280;61763;51.416;5.442;2024-01-30T01:44:14;102528.13;;;4.89;100.00
73516;BME280;61763;51.416;5.442;2024-01-30T01:46:39;102522.78;;;4.97;100.00
73516;BME280;61763;51.416;5.442;2024-01-30T01:49:05;102525.44;;;4.99;100.00
73516;BME280;61763;51.416;5.442;2024-01-30T01:51:34;102521.88;;;5.03;100.00
73516;BME280;61763;51.416;5.442;2024-01-30T01:54:04;102517.44;;;5.06;100.00
73516;BME280;61763;51.416;5.442;2024-01-30T01:56:31;102521.88;;;5.09;100.00
73516;BME280;61763;51.416;5.442;2024-01-30T01:59:00;102512.97;;;5.04;100.00
73516;BME280;61763;51.416;5.442;2024-01-30T02:01:28;102517.44;;;5.09;100.00
73516;BME280;61763;51.416;5.442;2024-01-30T02:03:54;102515.66;;;5.10;100.00
73516;BME280;61763;51.416;5.442;2024-01-30T02:06:19;102508.50;;;5.06;100.00
73516;BME280;61763;51.416;5.442;2024-01-30T02:08:45;102516.53;;;5.01;100.00
73516;BME280;61763;51.416;5.442;2024-01-30T02:11:11;102512.97;;;5.01;100.00
73516;BME280;61763;51.416;5.442;2024-01-30T02:13:36;102506.72;;;4.97;100.00
73516;BME280;61763;51.416;5.442;2024-01-30T02:16:02;102513.88;;;4.98;100.00
73516;BME280;61763;51.416;5.442;2024-01-30T02:18:27;102511.19;;;5.06;100.00
73516;BME280;61763;51.416;5.442;2024-01-30T02:20:56;102516.53;;;5.06;100.00
73516;BME280;61763;51.416;5.442;2024-01-30T02:23:24;102511.19;;;5.03;100.00
73516;BME280;61763;51.416;5.442;2024-01-30T02:25:52;102505.84;;;5.03;100.00
73516;BME280;61763;51.416;5.442;2024-01-30T02:28:19;102504.03;;;5.00;100.00
73516;BME280;61763;51.416;5.442;2024-01-30T02:30:45;102497.81;;;5.01;100.00
73516;BME280;61763;51.416;5.442;2024-01-30T02:33:11;102499.59;;;4.98;100.00
73516;BME280;61763;51.416;5.442;2024-01-30T02:35:36;102499.59;;;4.99;100.00
73516;BME280;61763;51.416;5.442;2024-01-30T02:38:02;102500.47;;;5.03;100.00
73516;BME280;61763;51.416;5.442;2024-01-30T02:40:27;102501.34;;;5.05;100.00
73516;BME280;61763;51.416;5.442;2024-01-30T02:42:52;102497.81;;;5.01;100.00
73516;BME280;61763;51.416;5.442;2024-01-30T02:45:18;102497.78;;;5.07;100.00
73516;BME280;61763;51.416;5.442;2024-01-30T02:47:43;102496.03;;;5.14;100.00
73516;BME280;61763;51.416;5.442;2024-01-30T02:50:09;102502.25;;;5.15;100.00
73516;BME280;61763;51.416;5.442;2024-01-30T02:52:35;102500.47;;;5.14;100.00
73516;BME280;61763;51.416;5.442;2024-01-30T02:55:01;102500.47;;;5.14;100.00
73516;BME280;61763;51.416;5.442;2024-01-30T02:57:27;102495.09;;;5.15;100.00
73516;BME280;61763;51.416;5.442;2024-01-30T02:59:52;102495.13;;;5.20;100.00
73516;BME280;61763;51.416;5.442;2024-01-30T03:02:18;102489.75;;;5.28;100.00
73516;BME280;61763;51.416;5.442;2024-01-30T03:04:43;102496.88;;;5.36;100.00
73516;BME280;61763;51.416;5.442;2024-01-30T03:07:09;102493.28;;;5.45;100.00
73516;BME280;61763;51.416;5.442;2024-01-30T03:09:36;102485.25;;;5.48;100.00
73516;BME280;61763;51.416;5.442;2024-01-30T03:12:02;102498.63;;;5.48;100.00
73516;BME280;61763;51.416;5.442;2024-01-30T03:14:28;102485.25;;;5.43;100.00
73516;BME280;61763;51.416;5.442;2024-01-30T03:16:53;102474.56;;;5.40;100.00
73516;BME280;61763;51.416;5.442;2024-01-30T03:19:19;102484.38;;;5.37;100.00
73516;BME280;61763;51.416;5.442;2024-01-30T03:21:44;102472.78;;;5.32;100.00
73516;BME280;61763;51.416;5.442;2024-01-30T03:24:09;102468.31;;;5.34;100.00
73516;BME280;61763;51.416;5.442;2024-01-30T03:26:35;102475.44;;;5.38;100.00
73516;BME280;61763;51.416;5.442;2024-01-30T03:29:00;102471.88;;;5.43;100.00
73516;BME280;61763;51.416;5.442;2024-01-30T03:31:26;102467.38;;;5.50;100.00
73516;BME280;61763;51.416;5.442;2024-01-30T03:33:51;102468.28;;;5.52;100.00
73516;BME280;61763;51.416;5.442;2024-01-30T03:36:17;102460.25;;;5.49;100.00
73516;BME280;61763;51.416;5.442;2024-01-30T03:38:42;102469.16;;;5.54;100.00
73516;BME280;61763;51.416;5.442;2024-01-30T03:41:08;102466.41;;;5.76;100.00
73516;BME280;61763;51.416;5.442;2024-01-30T03:43:34;102464.53;;;5.92;100.00
73516;BME280;61763;51.416;5.442;2024-01-30T03:46:01;102468.94;;;6.11;100.00
73516;BME280;61763;51.416;5.442;2024-01-30T03:48:26;102460.72;;;6.36;100.00
73516;BME280;61763;51.416;5.442;2024-01-30T03:50:52;102459.78;;;6.42;100.00
73516;BME280;61763;51.416;5.442;2024-01-30T03:53:17;102466.03;;;6.42;100.00
73516;BME280;61763;51.416;5.442;2024-01-30T03:55:42;102463.31;;;6.47;100.00
73516;BME280;61763;51.416;5.442;2024-01-30T03:58:08;102459.72;;;6.53;100.00
73516;BME280;61763;51.416;5.442;2024-01-30T04:00:33;102465.88;;;6.61;100.00
73516;BME280;61763;51.416;5.442;2024-01-30T04:02:59;102465.75;;;6.79;100.00
73516;BME280;61763;51.416;5.442;2024-01-30T04:05:24;102464.75;;;6.91;100.00
73516;BME280;61763;51.416;5.442;2024-01-30T04:07:49;102461.19;;;6.91;100.00
73516;BME280;61763;51.416;5.442;2024-01-30T04:10:15;102464.81;;;6.87;100.00
73516;BME280;61763;51.416;5.442;2024-01-30T04:12:41;102462.13;;;6.85;100.00
73516;BME280;61763;51.416;5.442;2024-01-30T04:15:06;102455.88;;;6.83;100.00
73516;BME280;61763;51.416;5.442;2024-01-30T04:17:33;102461.22;;;6.88;100.00
73516;BME280;61763;51.416;5.442;2024-01-30T04:19:58;102451.25;;;6.99;100.00
73516;BME280;61763;51.416;5.442;2024-01-30T04:22:23;102451.22;;;7.02;100.00
73516;BME280;61763;51.416;5.442;2024-01-30T04:24:49;102453.72;;;7.21;100.00
73516;BME280;61763;51.416;5.442;2024-01-30T04:27:14;102449.28;;;7.18;100.00
73516;BME280;61763;51.416;5.442;2024-01-30T04:29:39;102443.94;;;7.15;100.00
73516;BME280;61763;51.416;5.442;2024-01-30T04:32:05;102443.03;;;7.16;100.00
73516;BME280;61763;51.416;5.442;2024-01-30T04:34:30;102444.75;;;7.25;100.00
73516;BME280;61763;51.416;5.442;2024-01-30T04:36:56;102439.31;;;7.31;100.00
73516;BME280;61763;51.416;5.442;2024-01-30T04:39:22;102438.28;;;7.41;100.00
73516;BME280;61763;51.416;5.442;2024-01-30T04:41:47;102424.84;;;7.43;100.00
73516;BME280;61763;51.416;5.442;2024-01-30T04:44:13;102423.03;;;7.43;100.00
73516;BME280;61763;51.416;5.442;2024-01-30T04:46:39;102421.97;;;7.57;100.00
73516;BME280;61763;51.416;5.442;2024-01-30T04:49:04;102417.53;;;7.56;100.00
73516;BME280;61763;51.416;5.442;2024-01-30T04:51:29;102416.53;;;7.63;100.00
73516;BME280;61763;51.416;5.442;2024-01-30T04:53:55;102408.31;;;7.74;100.00
73516;BME280;61763;51.416;5.442;2024-01-30T04:56:20;102411.69;;;7.89;100.00
73516;BME280;61763;51.416;5.442;2024-01-30T04:58:46;102408.09;;;7.89;100.00
73516;BME280;61763;51.416;5.442;2024-01-30T05:01:15;102405.41;;;7.89;100.00
73516;BME280;61763;51.416;5.442;2024-01-30T05:03:41;102401.91;;;7.84;100.00
73516;BME280;61763;51.416;5.442;2024-01-30T05:06:06;102411.66;;;7.91;100.00
73516;BME280;61763;51.416;5.442;2024-01-30T05:08:32;102406.38;;;7.85;100.00
73516;BME280;61763;51.416;5.442;2024-01-30T05:11:00;102409.97;;;7.84;100.00
73516;BME280;61763;51.416;5.442;2024-01-30T05:13:25;102409.09;;;7.83;100.00
73516;BME280;61763;51.416;5.442;2024-01-30T05:15:51;102406.38;;;7.86;100.00
73516;BME280;61763;51.416;5.442;2024-01-30T05:18:16;102411.66;;;7.93;100.00
73516;BME280;61763;51.416;5.442;2024-01-30T05:20:41;102419.75;;;7.91;100.00
73516;BME280;61763;51.416;5.442;2024-01-30T05:23:07;102416.06;;;7.98;100.00
73516;BME280;61763;51.416;5.442;2024-01-30T05:25:33;102419.72;;;7.93;100.00
73516;BME280;61763;51.416;5.442;2024-01-30T05:27:58;102411.69;;;7.89;100.00
73516;BME280;61763;51.416;5.442;2024-01-30T05:30:24;102413.38;;;7.97;100.00
73516;BME280;61763;51.416;5.442;2024-01-30T05:32:49;102417.78;;;8.04;100.00
73516;BME280;61763;51.416;5.442;2024-01-30T05:35:14;102416.84;;;8.03;100.00
73516;BME280;61763;51.416;5.442;2024-01-30T05:37:40;102416.75;;;8.11;100.00
73516;BME280;61763;51.416;5.442;2024-01-30T05:40:06;102411.28;;;8.17;100.00
73516;BME280;61763;51.416;5.442;2024-01-30T05:42:31;102414.72;;;8.25;100.00
73516;BME280;61763;51.416;5.442;2024-01-30T05:44:57;102407.66;;;8.20;100.00
73516;BME280;61763;51.416;5.442;2024-01-30T05:47:22;102413.97;;;8.19;100.00
73516;BME280;61763;51.416;5.442;2024-01-30T05:49:48;102414.72;;;8.27;100.00
73516;BME280;61763;51.416;5.442;2024-01-30T05:52:13;102417.47;;;8.22;100.00
73516;BME280;61763;51.416;5.442;2024-01-30T05:54:40;102414.75;;;8.24;100.00
73516;BME280;61763;51.416;5.442;2024-01-30T05:57:05;102417.44;;;8.25;100.00
73516;BME280;61763;51.416;5.442;2024-01-30T05:59:31;102421.06;;;8.23;100.00
73516;BME280;61763;51.416;5.442;2024-01-30T06:01:56;102422.81;;;8.25;100.00
73516;BME280;61763;51.416;5.442;2024-01-30T06:04:22;102404.94;;;8.21;100.00
73516;BME280;61763;51.416;5.442;2024-01-30T06:06:47;102414.75;;;8.24;100.00
73516;BME280;61763;51.416;5.442;2024-01-30T06:09:12;102412.13;;;8.21;100.00
73516;BME280;61763;51.416;5.442;2024-01-30T06:11:38;102417.50;;;8.21;100.00
73516;BME280;61763;51.416;5.442;2024-01-30T06:14:03;102413.75;;;8.31;100.00
73516;BME280;61763;51.416;5.442;2024-01-30T06:16:29;102418.25;;;8.31;100.00
73516;BME280;61763;51.416;5.442;2024-01-30T06:18:55;102411.09;;;8.30;100.00
73516;BME280;61763;51.416;5.442;2024-01-30T06:21:20;102412.97;;;8.26;100.00
73516;BME280;61763;51.416;5.442;2024-01-30T06:23:46;102410.31;;;8.23;100.00
73516;BME280;61763;51.416;5.442;2024-01-30T06:26:11;102415.63;;;8.28;100.00
73516;BME280;61763;51.416;5.442;2024-01-30T06:28:37;102413.75;;;8.31;100.00
73516;BME280;61763;51.416;5.442;2024-01-30T06:31:02;102412.78;;;8.37;100.00
73516;BME280;61763;51.416;5.442;2024-01-30T06:33:27;102422.72;;;8.33;100.00
73516;BME280;61763;51.416;5.442;2024-01-30T06:35:53;102435.19;;;8.37;100.00
73516;BME280;61763;51.416;5.442;2024-01-30T06:38:18;102427.16;;;8.34;100.00
73516;BME280;61763;51.416;5.442;2024-01-30T06:40:44;102424.34;;;8.40;100.00
73516;BME280;61763;51.416;5.442;2024-01-30T06:43:09;102425.25;;;8.44;100.00
73516;BME280;61763;51.416;5.442;2024-01-30T06:45:35;102427.88;;;8.49;100.00
73516;BME280;61763;51.416;5.442;2024-01-30T06:48:00;102417.13;;;8.47;100.00
73516;BME280;61763;51.416;5.442;2024-01-30T06:50:26;102440.38;;;8.51;100.00
73516;BME280;61763;51.416;5.442;2024-01-30T06:52:51;102441.25;;;8.52;100.00
73516;BME280;61763;51.416;5.442;2024-01-30T06:55:18;102444.84;;;8.52;100.00
73516;BME280;61763;51.416;5.442;2024-01-30T06:57:43;102452.03;;;8.52;100.00
73516;BME280;61763;51.416;5.442;2024-01-30T07:00:09;102446.53;;;8.58;100.00
73516;BME280;61763;51.416;5.442;2024-01-30T07:02:34;102457.19;;;8.64;100.00
73516;BME280;61763;51.416;5.442;2024-01-30T07:05:00;102450.00;;;8.66;100.00
73516;BME280;61763;51.416;5.442;2024-01-30T07:07:25;102463.47;;;8.66;100.00
73516;BME280;61763;51.416;5.442;2024-01-30T07:09:51;102472.44;;;8.65;100.00
73516;BME280;61763;51.416;5.442;2024-01-30T07:12:22;102468.00;;;8.63;100.00
73516;BME280;61763;51.416;5.442;2024-01-30T07:14:47;102469.91;;;8.56;100.00
73516;BME280;61763;51.416;5.442;2024-01-30T07:17:13;102477.88;;;8.62;100.00
73516;BME280;61763;51.416;5.442;2024-01-30T07:19:38;102477.94;;;8.57;100.00
73516;BME280;61763;51.416;5.442;2024-01-30T07:22:04;102484.38;;;8.49;100.00
73516;BME280;61763;51.416;5.442;2024-01-30T07:24:29;102484.38;;;8.47;100.00
73516;BME280;61763;51.416;5.442;2024-01-30T07:26:54;102487.00;;;8.52;100.00
73516;BME280;61763;51.416;5.442;2024-01-30T07:29:20;102490.63;;;8.49;100.00
73516;BME280;61763;51.416;5.442;2024-01-30T07:31:46;102480.72;;;8.53;100.00
73516;BME280;61763;51.416;5.442;2024-01-30T07:34:11;102487.06;;;8.49;100.00
73516;BME280;61763;51.416;5.442;2024-01-30T07:36:37;102502.31;;;8.48;100.00
73516;BME280;61763;51.416;5.442;2024-01-30T07:39:02;102496.09;;;8.45;100.00
73516;BME280;61763;51.416;5.442;2024-01-30T07:41:29;102502.41;;;8.39;100.00
73516;BME280;61763;51.416;5.442;2024-01-30T07:43:54;102503.44;;;8.30;100.00
73516;BME280;61763;51.416;5.442;2024-01-30T07:46:20;102495.38;;;8.29;100.00
73516;BME280;61763;51.416;5.442;2024-01-30T07:48:45;102507.13;;;8.24;100.00
73516;BME280;61763;51.416;5.442;2024-01-30T07:51:10;102508.91;;;8.22;100.00
73516;BME280;61763;51.416;5.442;2024-01-30T07:53:36;102505.31;;;8.25;100.00
73516;BME280;61763;51.416;5.442;2024-01-30T07:56:01;102501.69;;;8.28;100.00
73516;BME280;61763;51.416;5.442;2024-01-30T07:58:27;102516.88;;;8.30;100.00
73516;BME280;61763;51.416;5.442;2024-01-30T08:00:53;102522.16;;;8.38;100.00
73516;BME280;61763;51.416;5.442;2024-01-30T08:03:18;102517.69;;;8.37;100.00
73516;BME280;61763;51.416;5.442;2024-01-30T08:05:44;102521.28;;;8.36;100.00
73516;BME280;61763;51.416;5.442;2024-01-30T08:08:09;102526.63;;;8.37;100.00
73516;BME280;61763;51.416;5.442;2024-01-30T08:10:35;102526.59;;;8.40;100.00
73516;BME280;61763;51.416;5.442;2024-01-30T08:13:01;102529.25;;;8.42;100.00
73516;BME280;61763;51.416;5.442;2024-01-30T08:15:27;102530.19;;;8.44;100.00
73516;BME280;61763;51.416;5.442;2024-01-30T08:17:52;102539.09;;;8.48;100.00
73516;BME280;61763;51.416;5.442;2024-01-30T08:20:23;102530.13;;;8.47;100.00
73516;BME280;61763;51.416;5.442;2024-01-30T08:22:48;102531.88;;;8.51;100.00
73516;BME280;61763;51.416;5.442;2024-01-30T08:25:13;102526.31;;;8.62;100.00
73516;BME280;61763;51.416;5.442;2024-01-30T08:27:39;102530.75;;;8.66;100.00
73516;BME280;61763;51.416;5.442;2024-01-30T08:30:08;102526.03;;;8.81;100.00
73516;BME280;61763;51.416;5.442;2024-01-30T08:32:34;102534.91;;;8.86;100.00
73516;BME280;61763;51.416;5.442;2024-01-30T08:34:59;102526.69;;;8.97;100.00
73516;BME280;61763;51.416;5.442;2024-01-30T08:37:26;102536.34;;;9.10;100.00
73516;BME280;61763;51.416;5.442;2024-01-30T08:39:51;102526.25;;;9.21;100.00
73516;BME280;61763;51.416;5.442;2024-01-30T08:42:17;102528.13;;;9.18;100.00
73516;BME280;61763;51.416;5.442;2024-01-30T08:44:47;102527.06;;;9.26;100.00
73516;BME280;61763;51.416;5.442;2024-01-30T08:47:13;102524.16;;;9.37;100.00
73516;BME280;61763;51.416;5.442;2024-01-30T08:49:38;102517.75;;;9.44;100.00
73516;BME280;61763;51.416;5.442;2024-01-30T08:52:04;102524.97;;;9.42;100.00
73516;BME280;61763;51.416;5.442;2024-01-30T08:54:29;102524.03;;;9.43;100.00
73516;BME280;61763;51.416;5.442;2024-01-30T08:56:57;102523.06;;;9.47;100.00
73516;BME280;61763;51.416;5.442;2024-01-30T08:59:24;102522.00;;;9.56;100.00
73516;BME280;61763;51.416;5.442;2024-01-30T09:01:49;102522.78;;;9.63;100.00
73516;BME280;61763;51.416;5.442;2024-01-30T09:04:18;102523.59;;;9.67;100.00
73516;BME280;61763;51.416;5.442;2024-01-30T09:06:45;102523.53;;;9.70;100.00
73516;BME280;61763;51.416;5.442;2024-01-30T09:09:10;102519.00;;;9.73;100.00
73516;BME280;61763;51.416;5.442;2024-01-30T09:11:35;102510.94;;;9.72;100.00
73516;BME280;61763;51.416;5.442;2024-01-30T09:14:01;102521.63;;;9.76;100.00
73516;BME280;61763;51.416;5.442;2024-01-30T09:16:26;102535.69;;;9.92;100.00
73516;BME280;61763;51.416;5.442;2024-01-30T09:18:52;102534.69;;;9.96;100.00
73516;BME280;61763;51.416;5.442;2024-01-30T09:21:17;102525.44;;;10.08;100.00
73516;BME280;61763;51.416;5.442;2024-01-30T09:23:42;102533.44;;;10.14;100.00
73516;BME280;61763;51.416;5.442;2024-01-30T09:26:08;102537.09;;;10.10;100.00
73516;BME280;61763;51.416;5.442;2024-01-30T09:28:33;102534.19;;;10.20;100.00
73516;BME280;61763;51.416;5.442;2024-01-30T09:30:59;102535.88;;;10.25;100.00
73516;BME280;61763;51.416;5.442;2024-01-30T09:33:24;102539.31;;;10.35;100.00
73516;BME280;61763;51.416;5.442;2024-01-30T09:35:49;102542.03;;;10.33;100.00
73516;BME280;61763;51.416;5.442;2024-01-30T09:38:16;102544.72;;;10.32;100.00
73516;BME280;61763;51.416;5.442;2024-01-30T09:40:41;102544.56;;;10.41;100.00
73516;BME280;61763;51.416;5.442;2024-01-30T09:43:07;102546.31;;;10.42;100.00
73516;BME280;61763;51.416;5.442;2024-01-30T09:45:33;102548.00;;;10.48;100.00
73516;BME280;61763;51.416;5.442;2024-01-30T09:48:00;102559.59;;;10.53;100.00
73516;BME280;61763;51.416;5.442;2024-01-30T09:50:26;102556.81;;;10.56;100.00
73516;BME280;61763;51.416;5.442;2024-01-30T09:52:53;102557.66;;;10.58;100.00
73516;BME280;61763;51.416;5.442;2024-01-30T09:55:20;102556.72;;;10.61;100.00
73516;BME280;61763;51.416;5.442;2024-01-30T09:57:45;102559.41;;;10.61;100.00
73516;BME280;61763;51.416;5.442;2024-01-30T10:00:12;102567.31;;;10.68;100.00
73516;BME280;61763;51.416;5.442;2024-01-30T10:02:38;102569.28;;;10.62;100.00
73516;BME280;61763;51.416;5.442;2024-01-30T10:05:04;102570.91;;;10.71;100.00
73516;BME280;61763;51.416;5.442;2024-01-30T10:07:30;102563.38;;;10.83;100.00
73516;BME280;61763;51.416;5.442;2024-01-30T10:09:56;102567.66;;;10.92;100.00
73516;BME280;61763;51.416;5.442;2024-01-30T10:12:26;102563.84;;;11.01;100.00
73516;BME280;61763;51.416;5.442;2024-01-30T10:14:52;102566.38;;;11.09;100.00
73516;BME280;61763;51.416;5.442;2024-01-30T10:17:17;102564.47;;;11.12;100.00
73516;BME280;61763;51.416;5.442;2024-01-30T10:19:43;102571.75;;;11.10;100.00
73516;BME280;61763;51.416;5.442;2024-01-30T10:22:09;102555.63;;;11.05;100.00
73516;BME280;61763;51.416;5.442;2024-01-30T10:24:34;102571.00;;;11.03;100.00
73516;BME280;61763;51.416;5.442;2024-01-30T10:27:00;102574.63;;;11.02;100.00
73516;BME280;61763;51.416;5.442;2024-01-30T10:29:27;102575.41;;;11.08;100.00
73516;BME280;61763;51.416;5.442;2024-01-30T10:32:05;102574.41;;;11.12;100.00
73516;BME280;61763;51.416;5.442;2024-01-30T10:34:31;102571.81;;;11.05;100.00
73516;BME280;61763;51.416;5.442;2024-01-30T10:37:11;102587.09;;;11.08;100.00
73516;BME280;61763;51.416;5.442;2024-01-30T10:39:43;102581.81;;;11.03;100.00
73516;BME280;61763;51.416;5.442;2024-01-30T10:42:14;102582.84;;;10.98;100.00
73516;BME280;61763;51.416;5.442;2024-01-30T10:45:06;102591.69;;;11.04;100.00
73516;BME280;61763;51.416;5.442;2024-01-30T10:47:35;102591.72;;;11.03;100.00
73516;BME280;61763;51.416;5.442;2024-01-30T10:50:04;102584.78;;;10.93;100.00
73516;BME280;61763;51.416;5.442;2024-01-30T10:52:31;102586.78;;;10.83;100.00
73516;BME280;61763;51.416;5.442;2024-01-30T10:54:58;102589.25;;;10.92;100.00
73516;BME280;61763;51.416;5.442;2024-01-30T10:57:24;102590.97;;;10.96;100.00
73516;BME280;61763;51.416;5.442;2024-01-30T10:59:53;102597.06;;;11.06;100.00
73516;BME280;61763;51.416;5.442;2024-01-30T11:02:20;102596.50;;;11.28;100.00
73516;BME280;61763;51.416;5.442;2024-01-30T11:04:47;102590.88;;;11.37;100.00
73516;BME280;61763;51.416;5.442;2024-01-30T11:07:24;102580.94;;;11.37;100.00
73516;BME280;61763;51.416;5.442;2024-01-30T11:09:51;102596.69;;;11.56;100.00
73516;BME280;61763;51.416;5.442;2024-01-30T11:12:16;102589.53;;;11.53;100.00
73516;BME280;61763;51.416;5.442;2024-01-30T11:14:41;102588.88;;;11.44;100.00
73516;BME280;61763;51.416;5.442;2024-01-30T11:17:09;102588.53;;;11.57;100.00
73516;BME280;61763;51.416;5.442;2024-01-30T11:19:35;102580.28;;;11.28;100.00
73516;BME280;61763;51.416;5.442;2024-01-30T11:22:00;102589.25;;;11.30;100.00
73516;BME280;61763;51.416;5.442;2024-01-30T11:24:26;102592.88;;;11.29;100.00
73516;BME280;61763;51.416;5.442;2024-01-30T11:26:58;102596.31;;;11.35;100.00
73516;BME280;61763;51.416;5.442;2024-01-30T11:29:28;102594.03;;;11.54;100.00
73516;BME280;61763;51.416;5.442;2024-01-30T11:31:54;102589.16;;;11.67;100.00
73516;BME280;61763;51.416;5.442;2024-01-30T11:34:20;102589.03;;;11.73;100.00
73516;BME280;61763;51.416;5.442;2024-01-30T11:36:52;102588.66;;;11.86;100.00
73516;BME280;61763;51.416;5.442;2024-01-30T11:39:20;102585.22;;;11.79;100.00
73516;BME280;61763;51.416;5.442;2024-01-30T11:41:46;102580.84;;;11.75;100.00
73516;BME280;61763;51.416;5.442;2024-01-30T11:44:12;102585.59;;;11.67;100.00
73516;BME280;61763;51.416;5.442;2024-01-30T11:46:38;102592.88;;;11.65;100.00
73516;BME280;61763;51.416;5.442;2024-01-30T11:49:03;102580.31;;;11.62;100.00
73516;BME280;61763;51.416;5.442;2024-01-30T11:51:30;102581.22;;;11.61;100.00
73516;BME280;61763;51.416;5.442;2024-01-30T11:53:57;102578.34;;;11.67;100.00
73516;BME280;61763;51.416;5.442;2024-01-30T11:56:23;102574.69;;;11.70;100.00
73516;BME280;61763;51.416;5.442;2024-01-30T11:58:49;102574.72;;;11.68;100.00
73516;BME280;61763;51.416;5.442;2024-01-30T12:01:16;102574.41;;;11.79;100.00
73516;BME280;61763;51.416;5.442;2024-01-30T12:03:42;102572.66;;;11.78;100.00
73516;BME280;61763;51.416;5.442;2024-01-30T12:06:08;102570.59;;;11.86;100.00
73516;BME280;61763;51.416;5.442;2024-01-30T12:08:34;102584.81;;;11.96;100.00
73516;BME280;61763;51.416;5.442;2024-01-30T12:11:00;102581.97;;;12.01;100.00
73516;BME280;61763;51.416;5.442;2024-01-30T12:13:30;102586.00;;;11.84;100.00
73516;BME280;61763;51.416;5.442;2024-01-30T12:15:56;102585.19;;;11.82;100.00
73516;BME280;61763;51.416;5.442;2024-01-30T12:18:21;102589.72;;;11.80;100.00
73516;BME280;61763;51.416;5.442;2024-01-30T12:20:57;102591.41;;;11.51;100.00
73516;BME280;61763;51.416;5.442;2024-01-30T12:23:24;102591.25;;;11.21;100.00
73516;BME280;61763;51.416;5.442;2024-01-30T12:25:51;102602.06;;;11.21;100.00
73516;BME280;61763;51.416;5.442;2024-01-30T12:28:17;102607.75;;;11.11;100.00
73516;BME280;61763;51.416;5.442;2024-01-30T12:30:42;102623.19;;;11.04;100.00
73516;BME280;61763;51.416;5.442;2024-01-30T12:33:08;102624.69;;;11.19;100.00
73516;BME280;61763;51.416;5.442;2024-01-30T12:35:35;102613.41;;;11.36;100.00
73516;BME280;61763;51.416;5.442;2024-01-30T12:38:01;102621.44;;;11.39;100.00
73516;BME280;61763;51.416;5.442;2024-01-30T12:40:27;102627.03;;;11.33;100.00
73516;BME280;61763;51.416;5.442;2024-01-30T12:42:53;102633.50;;;11.62;100.00